Time;durP1;ratioP1;P1;durP2;ratioP2;P2;SDS_P1;SDS_P2;PMS_P1;PMS_P2;Temp;Humidity;BMP_temperature;BMP_pressure;BME280_temperature;BME280_humidity;BME280_pressure;Samples;Min_cycle;Max_cycle;Signal;HPM_P1;HPM_P2
2023/01/10 00:02:24;;;;;;;9.70;7.70;;;;;;;5.82;68.79;96353.61;110431;1241;58892;-67
2023/01/10 00:04:53;;;;;;;9.90;7.20;;;;;;;5.80;68.86;96345.30;110422;1238;70583;-66
2023/01/10 00:07:23;;;;;;;10.10;7.20;;;;;;;5.78;68.77;96339.41;110424;1241;69147;-66
2023/01/10 00:09:52;;;;;;;9.30;6.70;;;;;;;5.77;69.21;96334.32;110349;1238;69112;-67
2023/01/10 00:15:09;;;;;;;9.60;7.20;;;;;;;5.75;69.15;96340.16;110463;1241;58868;-67
2023/01/10 00:17:39;;;;;;;10.80;8.60;;;;;;;5.74;69.23;96326.56;110445;1240;70624;-66
2023/01/10 00:20:09;;;;;;;10.60;7.70;;;;;;;5.75;69.32;96328.95;110358;1238;67515;-66
2023/01/10 00:22:38;;;;;;;;;;;;;;;5.73;69.65;96333.73;110308;1248;69886;-68
2023/01/10 00:25:08;;;;;;;10.00;6.90;;;;;;;5.71;69.72;96329.05;110520;1238;58950;-66
2023/01/10 00:27:38;;;;;;;8.10;6.90;;;;;;;5.70;69.64;96331.19;110389;1247;58872;-67
2023/01/10 00:30:14;;;;;;;10.80;7.80;;;;;;;5.71;69.47;96341.82;110399;1238;71215;-67
2023/01/10 00:32:44;;;;;;;11.10;7.20;;;;;;;5.73;69.25;96340.30;110371;1238;69220;-66
2023/01/10 00:35:13;;;;;;;9.40;7.30;;;;;;;5.76;69.07;96338.86;110419;1242;69249;-67
2023/01/10 00:37:43;;;;;;;11.60;7.00;;;;;;;5.77;69.17;96337.73;110304;1242;58934;-67
2023/01/10 00:40:12;;;;;;;11.30;7.10;;;;;;;5.78;68.91;96339.55;110393;1240;58878;-67
2023/01/10 00:45:30;;;;;;;9.00;7.10;;;;;;;5.80;68.74;96332.52;110391;1242;69345;-68
2023/01/10 00:48:01;;;;;;;9.00;6.70;;;;;;;5.79;68.74;96335.38;110502;1239;69645;-68
2023/01/10 00:50:31;;;;;;;8.70;6.30;;;;;;;5.76;68.95;96327.98;110632;1239;58850;-66
2023/01/10 00:53:00;;;;;;;9.40;7.10;;;;;;;5.74;68.98;96328.46;110672;1238;58893;-66
2023/01/10 00:55:30;;;;;;;10.00;7.10;;;;;;;5.72;68.96;96330.16;110349;1241;69649;-67
2023/01/10 00:58:00;;;;;;;9.70;7.10;;;;;;;5.72;68.76;96333.44;110545;1239;69039;-67
2023/01/10 01:00:31;;;;;;;8.10;6.10;;;;;;;5.71;68.83;96326.60;110567;1239;69880;-65
2023/01/10 01:03:00;;;;;;;8.80;6.40;;;;;;;5.70;68.82;96321.64;110507;1239;58868;-67
2023/01/10 01:05:29;;;;;;;10.70;6.90;;;;;;;5.69;68.73;96323.08;110502;1239;58943;-67
2023/01/10 01:07:58;;;;;;;9.60;7.10;;;;;;;5.68;68.99;96317.29;110500;1239;70115;-67
2023/01/10 01:10:28;;;;;;;9.40;7.00;;;;;;;5.68;69.01;96305.73;110557;1239;69732;-67
2023/01/10 01:13:04;;;;;;;10.00;6.90;;;;;;;5.67;68.94;96296.25;110431;1241;70012;-67
2023/01/10 01:15:34;;;;;;;9.00;7.00;;;;;;;5.65;69.23;96311.83;110460;1239;58935;-67
2023/01/10 01:18:04;;;;;;;;;;;;;;;5.64;69.08;96322.05;110627;1239;58778;-67
2023/01/10 01:20:33;;;;;;;10.10;6.70;;;;;;;5.63;69.07;96316.23;110603;1239;70634;-67
2023/01/10 01:23:03;;;;;;;9.80;6.50;;;;;;;5.63;69.02;96307.61;110690;1239;69652;-67
2023/01/10 01:25:34;;;;;;;9.30;6.80;;;;;;;5.64;68.93;96306.50;110471;1242;69170;-67
2023/01/10 01:28:03;;;;;;;7.50;6.20;;;;;;;5.63;68.83;96306.90;110446;1242;58899;-67
2023/01/10 01:30:34;;;;;;;9.20;7.30;;;;;;;5.63;68.87;96307.59;110530;1237;58878;-66
2023/01/10 01:33:04;;;;;;;9.40;6.40;;;;;;;5.62;68.77;96321.80;110506;1239;70605;-68
2023/01/10 01:35:33;;;;;;;10.50;6.70;;;;;;;5.62;68.82;96336.72;110451;1239;69814;-66
2023/01/10 01:38:03;;;;;;;10.90;6.80;;;;;;;5.63;68.75;96336.30;110510;1239;69091;-67
2023/01/10 01:40:32;;;;;;;7.90;6.50;;;;;;;5.64;68.78;96347.31;110486;1239;58929;-67
2023/01/10 01:43:02;;;;;;;8.20;6.70;;;;;;;5.63;68.71;96351.52;110525;1240;58871;-67
2023/01/10 01:45:38;;;;;;;9.40;6.60;;;;;;;5.62;68.53;96346.00;110457;1238;70649;-67
2023/01/10 01:48:12;;;;;;;7.40;5.60;;;;;;;5.63;68.53;96342.31;110514;1239;70205;-67
2023/01/10 01:50:58;;;;;;;7.00;5.60;;;;;;;5.64;68.45;96336.59;110518;1238;70215;-67
2023/01/10 01:54:06;;;;;;;9.10;6.30;;;;;;;5.63;68.47;96337.83;110594;1239;58860;-67
2023/01/10 01:56:50;;;;;;;7.70;6.60;;;;;;;5.65;68.12;96343.11;110628;1237;58817;-67
2023/01/10 01:59:29;;;;;;;10.20;6.80;;;;;;;5.68;67.82;96335.26;110642;1239;70362;-67
2023/01/10 02:02:04;;;;;;;9.50;6.40;;;;;;;5.72;67.81;96326.72;110680;1237;69798;-67
2023/01/10 02:04:50;;;;;;;8.50;6.20;;;;;;;5.73;67.85;96327.84;110740;1238;68590;-67
2023/01/10 02:07:21;;;;;;;7.70;6.00;;;;;;;5.74;67.73;96332.77;110684;1238;58916;-67
2023/01/10 02:10:02;;;;;;;9.20;6.40;;;;;;;5.75;67.72;96330.48;110703;1238;58938;-67
2023/01/10 02:12:32;;;;;;;8.50;5.80;;;;;;;5.75;67.80;96328.23;110661;1239;70606;-67
2023/01/10 02:15:02;;;;;;;9.50;5.80;;;;;;;5.74;67.81;96320.50;110707;1239;69780;-67
2023/01/10 02:17:32;;;;;;;7.80;5.80;;;;;;;5.73;67.84;96312.98;110687;1239;69194;-67
2023/01/10 02:20:06;;;;;;;10.20;6.20;;;;;;;5.71;67.98;96310.85;110704;1238;58870;-68
2023/01/10 02:22:44;;;;;;;8.90;6.20;;;;;;;5.69;68.25;96308.27;110672;1239;58877;-67
2023/01/10 02:25:45;;;;;;;7.00;5.20;;;;;;;5.67;68.22;96302.52;110660;1237;70666;-68
2023/01/10 02:28:51;;;;;;;9.00;7.10;;;;;;;5.63;68.66;96288.42;110662;1239;68378;-67
2023/01/10 02:31:48;;;;;;;7.70;6.30;;;;;;;5.59;68.60;96284.94;110599;1239;69337;-67
2023/01/10 02:34:34;;;;;;;10.50;7.00;;;;;;;5.54;68.81;96283.33;110736;1239;58854;-67
2023/01/10 02:37:23;;;;;;;10.10;6.70;;;;;;;5.52;68.81;96277.61;110651;1239;59298;-67
2023/01/10 02:40:38;;;;;;;8.70;6.10;;;;;;;5.50;69.07;96274.63;110691;1238;70505;-66
2023/01/10 02:43:21;;;;;;;8.50;6.00;;;;;;;5.48;69.06;96270.14;110643;1237;69202;-66
2023/01/10 02:46:04;;;;;;;9.10;6.30;;;;;;;5.46;69.61;96269.42;110686;1237;69311;-66
2023/01/10 02:48:34;;;;;;;8.90;6.30;;;;;;;5.45;69.35;96264.61;110632;1239;58988;-67
2023/01/10 02:51:18;;;;;;;8.90;6.90;;;;;;;5.46;69.32;96257.31;109983;1238;721578;-67
2023/01/10 02:54:09;;;;;;;9.30;6.60;;;;;;;5.45;69.51;96257.70;110608;1240;69741;-67
2023/01/10 02:56:54;;;;;;;;;;;;;;;5.45;69.77;96255.63;110710;1238;69600;-67
2023/01/10 03:00:01;;;;;;;8.80;6.70;;;;;;;5.44;69.98;96254.02;110667;1238;69365;-67
2023/01/10 03:02:57;;;;;;;9.10;6.20;;;;;;;5.43;70.01;96250.63;110711;1239;58858;-67
2023/01/10 03:05:37;;;;;;;9.30;6.30;;;;;;;5.42;69.82;96249.46;110696;1239;58783;-67
2023/01/10 03:08:24;;;;;;;8.90;6.80;;;;;;;5.41;69.89;96239.85;110570;1239;70677;-67
2023/01/10 03:10:59;;;;;;;9.90;6.70;;;;;;;5.40;70.49;96233.88;110620;1239;69692;-67
2023/01/10 03:13:29;;;;;;;7.40;6.00;;;;;;;5.38;70.72;96234.09;110583;1239;69286;-67
2023/01/10 03:16:01;;;;;;;9.00;6.60;;;;;;;5.38;70.32;96234.90;110663;1239;58879;-67
2023/01/10 03:18:45;;;;;;;8.60;6.70;;;;;;;5.36;70.55;96236.25;110658;1237;58855;-67
2023/01/10 03:21:18;;;;;;;9.70;6.60;;;;;;;5.34;70.70;96240.36;110658;1239;68938;-67
2023/01/10 03:23:52;;;;;;;9.50;6.60;;;;;;;5.31;71.00;96245.03;110657;1238;69241;-67
2023/01/10 03:26:29;;;;;;;8.60;6.20;;;;;;;5.30;70.93;96250.16;110718;1239;69839;-67
2023/01/10 03:29:07;;;;;;;8.80;6.40;;;;;;;5.29;71.02;96250.72;110682;1239;58948;-67
2023/01/10 03:31:44;;;;;;;8.70;6.20;;;;;;;5.27;70.96;96256.56;110555;1241;58957;-67
2023/01/10 03:34:15;;;;;;;7.70;5.60;;;;;;;5.26;70.73;96257.00;110654;1239;69895;-67
2023/01/10 03:37:13;;;;;;;9.50;6.30;;;;;;;5.25;70.85;96253.06;110712;1239;69062;-67
2023/01/10 03:40:24;;;;;;;9.10;5.60;;;;;;;5.24;70.82;96252.64;110604;1239;70304;-67
2023/01/10 03:46:20;;;;;;;8.60;6.20;;;;;;;5.25;70.42;96253.82;110533;1240;58956;-67
2023/01/10 03:48:51;;;;;;;9.00;6.40;;;;;;;5.29;70.11;96250.74;110554;1239;68783;-67
2023/01/10 03:51:20;;;;;;;8.40;6.20;;;;;;;5.31;70.24;96244.36;110609;1238;69263;-67
2023/01/10 03:53:50;;;;;;;8.20;5.30;;;;;;;5.34;69.97;96246.77;110639;1244;69223;-67
2023/01/10 03:56:19;;;;;;;7.80;5.50;;;;;;;5.36;69.93;96247.12;110693;1239;58940;-67
2023/01/10 03:58:48;;;;;;;8.60;5.90;;;;;;;5.38;70.17;96243.21;110747;1239;58860;-67
2023/01/10 04:01:19;;;;;;;9.10;6.40;;;;;;;5.39;70.18;96243.15;110672;1237;70608;-67
2023/01/10 04:03:49;;;;;;;;;;;;;;;5.39;70.64;96246.95;110678;1239;69241;-67
2023/01/10 04:06:19;;;;;;;8.30;5.30;;;;;;;5.38;70.16;96247.86;110652;1239;69166;-67
2023/01/10 04:08:50;;;;;;;8.50;5.80;;;;;;;5.39;70.03;96243.13;110649;1239;58940;-67
2023/01/10 04:11:20;;;;;;;6.80;5.30;;;;;;;5.39;69.97;96248.80;110664;1239;58861;-67
2023/01/10 04:13:50;;;;;;;8.50;5.90;;;;;;;5.41;69.85;96251.63;110652;1239;70118;-67
2023/01/10 04:16:19;;;;;;;;;;;;;;;5.42;69.77;96250.71;110721;1239;68259;-67
2023/01/10 04:18:49;;;;;;;;;;;;;;;5.42;69.59;96243.77;110652;1240;69682;-67
2023/01/10 04:21:19;;;;;;;7.80;5.50;;;;;;;5.42;69.74;96241.34;110617;1239;58877;-67
2023/01/10 04:23:49;;;;;;;8.10;5.80;;;;;;;5.43;69.66;96236.30;110640;1237;58869;-67
2023/01/10 04:26:18;;;;;;;9.40;6.20;;;;;;;5.44;69.58;96239.12;110686;1239;70636;-67
2023/01/10 04:28:48;;;;;;;8.60;6.00;;;;;;;5.45;69.56;96243.92;110593;1239;69266;-67
2023/01/10 04:31:18;;;;;;;7.40;5.30;;;;;;;5.46;69.48;96247.81;110690;1239;69571;-67
2023/01/10 04:33:47;;;;;;;11.10;6.50;;;;;;;5.47;69.52;96248.81;110655;1237;58941;-67
2023/01/10 04:36:17;;;;;;;8.50;6.50;;;;;;;5.47;69.92;96248.43;110661;1239;58881;-67
2023/01/10 04:38:46;;;;;;;9.50;6.30;;;;;;;5.47;69.98;96251.36;110580;1237;69794;-67
2023/01/10 04:41:16;;;;;;;9.80;6.90;;;;;;;5.48;69.60;96248.73;110666;1239;69035;-67
2023/01/10 04:43:45;;;;;;;8.40;5.90;;;;;;;5.49;69.34;96252.12;110705;1239;69850;-67
2023/01/10 04:46:15;;;;;;;9.20;6.70;;;;;;;5.50;69.38;96259.94;110642;1238;58898;-67
2023/01/10 04:48:44;;;;;;;8.00;6.20;;;;;;;5.51;69.22;96256.08;110688;1239;58820;-67
2023/01/10 04:51:13;;;;;;;9.50;6.00;;;;;;;5.53;69.20;96263.05;110704;1237;71170;-67
2023/01/10 04:53:42;;;;;;;8.80;6.00;;;;;;;5.54;69.18;96265.89;110634;1246;69795;-67
2023/01/10 04:56:16;;;;;;;8.90;5.80;;;;;;;5.54;68.88;96263.15;110635;1239;69868;-67
2023/01/10 04:58:46;;;;;;;9.30;6.10;;;;;;;5.54;69.01;96259.87;110642;1239;58934;-67
2023/01/10 05:01:19;;;;;;;11.30;7.20;;;;;;;5.54;69.11;96258.81;110743;1239;58869;-67
2023/01/10 05:03:51;;;;;;;9.20;6.40;;;;;;;5.54;68.73;96262.23;110702;1237;70449;-67
2023/01/10 05:06:22;;;;;;;10.20;6.30;;;;;;;5.55;68.96;96263.59;110717;1238;68068;-67
2023/01/10 05:08:51;;;;;;;9.80;7.00;;;;;;;5.55;69.23;96260.80;110677;1239;68932;-67
2023/01/10 05:11:21;;;;;;;11.00;7.40;;;;;;;5.54;69.26;96261.37;110673;1239;58853;-66
2023/01/10 05:13:50;;;;;;;10.80;7.00;;;;;;;5.53;69.20;96262.30;110730;1239;58866;-67
2023/01/10 05:16:20;;;;;;;10.70;7.10;;;;;;;5.52;69.40;96263.63;110724;1239;70813;-67
2023/01/10 05:18:50;;;;;;;10.10;6.90;;;;;;;5.52;69.33;96271.02;110709;1238;69198;-67
2023/01/10 05:21:19;;;;;;;8.50;6.30;;;;;;;5.52;69.27;96274.36;110677;1237;69839;-67
2023/01/10 05:23:50;;;;;;;10.20;6.10;;;;;;;5.51;69.46;96283.02;110727;1239;58902;-67
2023/01/10 05:26:22;;;;;;;9.30;6.50;;;;;;;5.50;69.52;96290.00;110691;1239;58998;-66
2023/01/10 05:28:51;;;;;;;9.30;6.80;;;;;;;5.50;69.78;96290.91;110727;1237;71018;-67
2023/01/10 05:31:20;;;;;;;8.60;5.70;;;;;;;5.49;69.44;96298.54;110662;1239;69196;-68
2023/01/10 05:33:50;;;;;;;7.80;6.10;;;;;;;5.50;69.26;96305.45;110671;1239;69791;-67
2023/01/10 05:36:19;;;;;;;;;;;;;;;5.49;69.45;96311.52;110716;1239;58858;-67
2023/01/10 05:38:49;;;;;;;8.00;5.90;;;;;;;5.48;69.90;96320.42;110675;1239;58884;-67
2023/01/10 05:41:18;;;;;;;9.30;6.80;;;;;;;5.47;69.74;96323.95;110685;1239;69741;-67
2023/01/10 05:43:47;;;;;;;13.60;10.50;;;;;;;5.46;69.39;96321.08;110673;1239;69796;-67
2023/01/10 05:46:16;;;;;;;8.70;6.70;;;;;;;5.45;69.70;96308.53;110697;1238;69668;-67
2023/01/10 05:48:46;;;;;;;8.60;6.00;;;;;;;5.45;69.53;96310.12;110709;1238;58949;-67
2023/01/10 05:51:15;;;;;;;7.40;5.60;;;;;;;5.45;69.52;96316.84;110694;1238;58871;-67
2023/01/10 05:53:44;;;;;;;10.90;7.50;;;;;;;5.45;69.60;96322.89;110544;1241;70031;-66
2023/01/10 05:56:15;;;;;;;8.80;6.90;;;;;;;5.43;69.95;96328.71;110694;1238;69635;-66
2023/01/10 05:58:44;;;;;;;10.80;7.20;;;;;;;5.43;69.83;96332.71;110716;1238;68630;-66
2023/01/10 06:01:16;;;;;;;10.90;7.80;;;;;;;5.41;69.59;96335.41;110696;1241;58927;-66
2023/01/10 06:03:46;;;;;;;10.00;6.70;;;;;;;5.42;69.57;96332.27;110707;1238;58795;-68
2023/01/10 06:06:15;;;;;;;10.40;6.80;;;;;;;5.41;69.50;96333.70;110689;1239;70582;-68
2023/01/10 06:08:43;;;;;;;10.00;6.90;;;;;;;5.42;69.58;96332.10;110704;1239;69809;-68
2023/01/10 06:11:13;;;;;;;8.70;6.30;;;;;;;5.42;69.45;96330.15;110687;1237;67562;-67
2023/01/10 06:13:42;;;;;;;9.40;6.30;;;;;;;5.44;69.34;96337.44;110657;1239;58937;-68
2023/01/10 06:16:11;;;;;;;10.00;6.60;;;;;;;5.47;69.06;96345.92;110630;1249;58868;-66
2023/01/10 06:18:40;;;;;;;10.80;6.50;;;;;;;5.47;69.34;96348.81;110600;1242;71070;-66
2023/01/10 06:21:09;;;;;;;9.00;6.40;;;;;;;5.48;69.61;96348.59;110619;1238;69259;-66
2023/01/10 06:23:38;;;;;;;8.60;5.50;;;;;;;5.47;69.63;96345.40;110603;1241;69256;-66
2023/01/10 06:26:07;;;;;;;8.30;5.70;;;;;;;5.44;69.69;96345.89;110623;1238;58808;-66
2023/01/10 06:28:36;;;;;;;8.20;5.50;;;;;;;5.42;70.05;96352.11;110575;1240;58908;-66
2023/01/10 06:31:07;;;;;;;7.70;5.90;;;;;;;5.41;70.45;96350.67;110624;1242;70570;-66
2023/01/10 06:33:37;;;;;;;9.40;5.70;;;;;;;5.39;70.60;96347.14;110628;1242;69804;-66
2023/01/10 06:36:07;;;;;;;11.60;7.30;;;;;;;5.38;70.74;96347.38;110489;1241;68643;-66
2023/01/10 06:38:36;;;;;;;10.40;6.30;;;;;;;5.38;70.56;96350.31;110545;1241;58933;-66
2023/01/10 06:41:11;;;;;;;9.00;6.20;;;;;;;5.40;70.27;96352.80;110464;1241;58863;-66
2023/01/10 06:43:46;;;;;;;8.60;5.80;;;;;;;5.42;70.31;96350.08;110522;1242;70548;-66
2023/01/10 06:46:18;;;;;;;9.90;6.00;;;;;;;5.45;70.26;96352.63;110615;1241;69949;-66
2023/01/10 06:48:47;;;;;;;10.10;6.60;;;;;;;5.48;70.16;96360.20;110610;1241;69856;-66
2023/01/10 06:51:16;;;;;;;8.70;6.90;;;;;;;5.51;69.98;96369.42;110622;1244;58888;-66
2023/01/10 06:53:47;;;;;;;9.90;6.60;;;;;;;5.56;69.97;96363.41;110516;1242;58833;-66
2023/01/10 06:56:17;;;;;;;10.40;7.60;;;;;;;5.62;69.86;96361.09;110612;1241;70100;-66
2023/01/10 06:58:49;;;;;;;9.20;7.20;;;;;;;5.68;69.66;96364.50;110554;1241;69778;-66
2023/01/10 07:01:20;;;;;;;10.50;8.60;;;;;;;5.73;69.55;96380.53;110599;1242;68595;-66
2023/01/10 07:03:49;;;;;;;9.80;6.70;;;;;;;5.79;69.84;96382.57;110484;1241;58865;-66
2023/01/10 07:06:18;;;;;;;13.90;10.00;;;;;;;5.83;70.17;96389.04;110607;1241;58887;-66
2023/01/10 07:08:47;;;;;;;13.00;10.40;;;;;;;5.87;70.02;96394.83;110602;1238;71042;-66
2023/01/10 07:11:16;;;;;;;17.60;13.30;;;;;;;5.91;71.35;96394.17;110517;1241;69880;-66
2023/01/10 07:13:45;;;;;;;22.20;16.80;;;;;;;5.94;72.97;96399.52;110617;1241;69268;-66
2023/01/10 07:16:15;;;;;;;21.70;17.90;;;;;;;5.96;74.39;96396.98;110433;1240;58861;-66
2023/01/10 07:18:44;;;;;;;18.60;13.00;;;;;;;6.03;73.10;96393.16;110625;1241;58902;-66
2023/01/10 07:21:15;;;;;;;18.20;12.10;;;;;;;6.12;72.07;96381.14;110455;1238;71163;-66
2023/01/10 07:23:51;;;;;;;19.00;12.40;;;;;;;6.24;71.50;96367.48;110379;1238;69157;-66
2023/01/10 07:26:20;;;;;;;15.80;11.20;;;;;;;6.38;71.12;96369.72;110452;1241;69890;-66
2023/01/10 07:28:50;;;;;;;11.50;9.20;;;;;;;6.59;71.03;96374.23;110366;1238;58905;-66
2023/01/10 07:31:22;;;;;;;13.80;9.20;;;;;;;6.85;70.01;96375.99;110575;1238;58887;-68
2023/01/10 07:33:51;;;;;;;13.60;9.30;;;;;;;7.10;69.32;96373.09;110608;1240;70026;-68
2023/01/10 07:36:21;;;;;;;12.20;9.70;;;;;;;7.28;68.64;96367.52;110618;1241;69199;-68
2023/01/10 07:38:49;;;;;;;10.50;7.80;;;;;;;7.43;66.36;96362.42;110583;1245;69686;-68
2023/01/10 07:41:18;;;;;;;9.60;7.20;;;;;;;7.59;65.89;96367.55;110637;1241;58874;-68
2023/01/10 07:43:47;;;;;;;10.10;7.10;;;;;;;7.75;65.51;96371.39;110631;1240;58892;-67
2023/01/10 07:46:16;;;;;;;10.70;7.40;;;;;;;7.91;64.94;96370.30;110645;1238;71192;-67
2023/01/10 07:48:45;;;;;;;18.90;16.00;;;;;;;8.07;65.03;96363.12;110568;1242;69770;-68
2023/01/10 07:51:14;;;;;;;18.80;13.60;;;;;;;8.25;65.91;96360.36;110542;1240;69351;-68
2023/01/10 07:53:44;;;;;;;19.70;14.10;;;;;;;8.37;65.03;96360.27;110451;1240;58887;-68
2023/01/10 07:56:12;;;;;;;22.10;15.50;;;;;;;8.50;65.20;96358.71;110599;1242;58889;-68
2023/01/10 07:58:42;;;;;;;29.70;19.30;;;;;;;8.61;65.37;96355.88;110633;1240;71809;-69
2023/01/10 08:01:11;;;;;;;28.60;20.20;;;;;;;8.69;65.21;96355.05;110623;1242;68111;-68
2023/01/10 08:03:40;;;;;;;30.80;22.40;;;;;;;8.78;63.76;96346.02;110552;1240;69704;-68
2023/01/10 08:06:10;;;;;;;29.00;21.70;;;;;;;8.82;64.41;96349.30;110282;1238;58975;-68
2023/01/10 08:08:38;;;;;;;25.90;19.90;;;;;;;8.80;63.47;96351.72;110241;1238;58962;-68
2023/01/10 08:11:08;;;;;;;27.80;19.70;;;;;;;8.79;62.95;96350.80;110515;1240;70623;-68
2023/01/10 08:13:36;;;;;;;26.00;18.70;;;;;;;8.81;63.54;96336.00;110648;1242;69116;-68
2023/01/10 08:16:07;;;;;;;22.70;16.30;;;;;;;8.81;63.17;96331.86;110483;1242;70018;-68
2023/01/10 08:18:37;;;;;;;19.50;14.70;;;;;;;8.91;62.84;96338.51;110601;1240;58855;-67
2023/01/10 08:21:06;;;;;;;21.60;15.20;;;;;;;9.06;62.52;96334.45;110561;1241;58868;-68
2023/01/10 08:23:36;;;;;;;17.40;13.50;;;;;;;9.24;62.26;96333.43;110544;1240;71203;-68
2023/01/10 08:26:05;;;;;;;16.50;12.90;;;;;;;9.42;60.98;96341.80;110402;1242;68769;-69
2023/01/10 08:28:34;;;;;;;17.70;12.60;;;;;;;9.72;60.23;96351.11;110626;1240;69853;-68
2023/01/10 08:31:09;;;;;;;20.40;15.10;;;;;;;10.02;59.29;96355.83;110452;1242;58873;-68
2023/01/10 08:33:39;;;;;;;20.40;15.20;;;;;;;10.24;58.42;96355.48;110436;1241;58878;-67
2023/01/10 08:36:16;;;;;;;27.10;19.60;;;;;;;10.42;57.39;96368.19;110455;1241;71163;-69
2023/01/10 08:38:45;;;;;;;23.70;18.00;;;;;;;10.61;59.43;96384.96;110640;1240;68746;-68
2023/01/10 08:41:15;;;;;;;23.50;17.80;;;;;;;10.65;57.09;96402.38;110248;1240;68534;-68
2023/01/10 08:43:44;;;;;;;39.40;25.60;;;;;;;10.57;56.02;96418.42;110377;1240;58943;-68
2023/01/10 08:46:13;;;;;;;39.20;26.80;;;;;;;10.48;57.66;96431.05;110439;1241;58827;-68
2023/01/10 08:48:42;;;;;;;35.60;23.70;;;;;;;10.29;56.66;96434.41;110424;1242;71023;-68
2023/01/10 08:51:10;;;;;;;28.70;20.80;;;;;;;10.27;56.41;96441.08;110422;1238;69242;-69
2023/01/10 08:53:40;;;;;;;18.30;14.40;;;;;;;10.33;55.36;96438.08;110390;1243;69130;-68
2023/01/10 08:56:09;;;;;;;16.40;11.80;;;;;;;10.45;55.48;96436.83;110285;1242;58937;-68
2023/01/10 08:58:39;;;;;;;15.60;10.30;;;;;;;10.56;54.86;96438.05;110348;1242;58867;-68
2023/01/10 09:01:10;;;;;;;13.30;9.50;;;;;;;10.64;54.19;96436.07;110355;1242;71096;-69
2023/01/10 09:03:39;;;;;;;10.70;8.00;;;;;;;10.73;53.52;96436.68;110361;1241;69208;-68
2023/01/10 09:06:08;;;;;;;8.50;6.60;;;;;;;10.91;53.60;96435.91;110484;1241;69260;-68
2023/01/10 09:08:37;;;;;;;8.40;5.90;;;;;;;11.18;53.63;96437.66;110397;1240;59605;-69
2023/01/10 09:11:06;;;;;;;7.70;5.70;;;;;;;11.37;53.56;96447.26;110379;1242;60062;-69
2023/01/10 09:13:35;;;;;;;8.80;6.60;;;;;;;11.41;52.35;96448.15;110389;1240;71447;-68
2023/01/10 09:16:05;;;;;;;20.40;14.50;;;;;;;11.35;52.02;96447.31;110221;1238;68909;-69
2023/01/10 09:18:34;;;;;;;10.60;8.50;;;;;;;11.40;52.65;96443.33;110541;1243;69299;-70
2023/01/10 09:21:03;;;;;;;13.70;11.20;;;;;;;11.41;52.37;96440.81;110515;1240;59740;-68
2023/01/10 09:23:33;;;;;;;33.80;24.30;;;;;;;11.47;52.18;96441.15;110427;1242;59678;-68
2023/01/10 09:26:07;;;;;;;14.80;12.00;;;;;;;11.50;51.78;96439.14;110439;1242;71840;-68
2023/01/10 09:28:36;;;;;;;6.90;6.10;;;;;;;11.58;52.53;96432.45;110423;1241;68860;-68
2023/01/10 09:31:07;;;;;;;7.30;5.80;;;;;;;11.65;52.05;96427.58;110614;1243;69989;-69
2023/01/10 09:33:40;;;;;;;5.90;5.00;;;;;;;11.69;52.24;96426.01;110433;1241;59741;-68
2023/01/10 09:36:14;;;;;;;6.60;4.50;;;;;;;11.70;51.34;96422.61;110639;1241;59618;-69
2023/01/10 09:38:44;;;;;;;6.00;4.50;;;;;;;11.61;51.23;96423.30;110651;1243;71349;-68
2023/01/10 09:41:30;;;;;;;6.10;4.30;;;;;;;11.49;51.30;96424.77;110601;1238;69790;-69
2023/01/10 09:44:17;;;;;;;6.60;4.60;;;;;;;11.36;51.50;96429.73;110632;1242;68427;-69
2023/01/10 09:47:14;;;;;;;7.30;5.50;;;;;;;11.26;51.92;96433.30;110629;1241;59753;-69
2023/01/10 09:50:15;;;;;;;8.20;5.80;;;;;;;11.12;51.93;96434.95;110646;1241;59670;-69
2023/01/10 09:52:51;;;;;;;7.60;4.20;;;;;;;11.02;52.33;96440.91;110654;1238;71340;-69
2023/01/10 09:55:32;;;;;;;7.90;4.90;;;;;;;10.96;52.77;96443.01;110629;1241;69004;-69
2023/01/10 09:58:06;;;;;;;6.40;4.60;;;;;;;10.81;52.17;96442.98;110261;1242;69871;-68
2023/01/10 10:00:42;;;;;;;6.20;4.30;;;;;;;10.74;52.84;96445.63;110637;1241;59733;-69
2023/01/10 10:03:32;;;;;;;7.40;5.60;;;;;;;10.72;53.28;96451.61;110597;1242;59641;-69
2023/01/10 10:06:03;;;;;;;6.30;4.90;;;;;;;10.63;52.90;96449.52;110557;1242;70580;-67
2023/01/10 10:08:44;;;;;;;6.00;4.90;;;;;;;10.52;53.09;96452.83;110667;1242;69685;-67
2023/01/10 10:11:25;;;;;;;5.50;4.20;;;;;;;10.42;53.60;96450.86;110605;1238;69267;-67
2023/01/10 10:14:08;;;;;;;7.00;5.00;;;;;;;10.39;53.85;96447.88;110486;1242;59680;-67
2023/01/10 10:17:06;;;;;;;6.70;5.30;;;;;;;10.35;54.18;96447.67;110594;1238;59689;-67
2023/01/10 10:19:54;;;;;;;6.60;5.10;;;;;;;10.31;54.00;96449.98;110582;1242;71425;-67
2023/01/10 10:22:31;;;;;;;17.80;11.70;;;;;;;10.23;53.58;96458.84;110577;1240;69705;-66
2023/01/10 10:25:46;;;;;;;215.60;98.70;;;;;;;10.17;54.09;96456.86;110522;1243;70177;-67
2023/01/10 10:28:46;;;;;;;73.80;36.50;;;;;;;10.06;54.43;96450.48;110439;1240;59756;-67
2023/01/10 10:32:07;;;;;;;40.80;19.60;;;;;;;10.02;54.92;96453.41;110528;1242;59686;-67
2023/01/10 10:34:42;;;;;;;18.10;10.50;;;;;;;10.02;55.15;96446.28;110579;1242;70379;-67
2023/01/10 10:37:31;;;;;;;14.40;6.90;;;;;;;10.02;55.20;96443.38;110496;1242;69821;-67
2023/01/10 10:40:26;;;;;;;7.40;5.50;;;;;;;9.99;55.20;96438.92;110643;1242;69880;-67
2023/01/10 10:43:04;;;;;;;6.80;4.40;;;;;;;9.99;55.72;96434.45;110620;1243;59737;-68
2023/01/10 10:45:42;;;;;;;5.90;4.10;;;;;;;10.00;55.91;96428.17;110670;1239;59689;-69
2023/01/10 10:48:26;;;;;;;7.10;4.70;;;;;;;10.03;55.74;96427.40;110541;1241;70910;-67
2023/01/10 10:51:01;;;;;;;6.60;4.80;;;;;;;10.07;56.72;96428.32;110517;1241;69802;-67
2023/01/10 10:53:32;;;;;;;8.10;5.90;;;;;;;10.14;56.08;96426.84;110636;1238;70217;-67
2023/01/10 10:56:03;;;;;;;11.20;7.20;;;;;;;10.18;55.34;96435.39;110600;1241;59755;-67
2023/01/10 10:58:32;;;;;;;8.20;5.50;;;;;;;10.22;54.96;96436.29;110642;1241;59624;-67
2023/01/10 11:01:01;;;;;;;7.20;4.50;;;;;;;10.23;55.29;96437.74;110464;1238;71809;-67
2023/01/10 11:03:51;;;;;;;6.60;4.70;;;;;;;10.27;55.46;96437.80;110452;1239;69206;-69
2023/01/10 11:06:22;;;;;;;;;;;;;;;10.32;54.59;96442.59;110616;1240;69284;-67
2023/01/10 11:08:56;;;;;;;27.60;15.40;;;;;;;10.36;55.25;96445.89;110579;1241;59754;-67
2023/01/10 11:11:28;;;;;;;17.60;9.70;;;;;;;10.40;54.46;96445.17;110462;1242;59623;-69
2023/01/10 11:14:00;;;;;;;12.90;9.20;;;;;;;10.49;55.13;96446.96;110606;1238;71826;-67
2023/01/10 11:16:38;;;;;;;9.20;6.80;;;;;;;10.59;54.29;96442.59;110660;1241;69103;-67
2023/01/10 11:19:07;;;;;;;13.00;7.90;;;;;;;10.67;53.33;96436.46;110595;1241;69084;-67
2023/01/10 11:21:39;;;;;;;7.80;6.20;;;;;;;10.70;53.44;96440.56;110399;1240;59721;-67
2023/01/10 11:24:35;;;;;;;7.50;5.20;;;;;;;10.68;53.16;96442.52;110479;1242;59654;-67
2023/01/10 11:27:16;;;;;;;8.60;5.60;;;;;;;10.65;52.77;96445.21;110441;1245;72325;-69
2023/01/10 11:29:51;;;;;;;6.40;4.60;;;;;;;10.67;54.06;96444.00;110483;1241;69681;-67
2023/01/10 11:32:32;;;;;;;7.20;4.70;;;;;;;10.72;55.34;96442.98;110582;1242;69861;-67
2023/01/10 11:35:06;;;;;;;6.10;4.10;;;;;;;10.76;54.60;96446.55;110498;1242;59801;-68
2023/01/10 11:37:35;;;;;;;7.10;5.20;;;;;;;10.71;53.58;96440.31;110514;1242;59727;-67
2023/01/10 11:40:26;;;;;;;7.20;4.90;;;;;;;10.61;53.36;96435.77;110610;1248;71334;-69
2023/01/10 11:42:57;;;;;;;11.20;7.60;;;;;;;10.63;54.79;96428.12;110640;1242;69533;-67
2023/01/10 11:45:30;;;;;;;11.40;8.60;;;;;;;10.69;58.01;96428.11;110602;1241;69311;-69
2023/01/10 11:48:07;;;;;;;12.20;9.50;;;;;;;10.72;58.09;96430.66;110656;1238;59731;-67
2023/01/10 11:50:40;;;;;;;11.70;9.10;;;;;;;10.76;58.11;96439.41;110645;1241;59733;-67
2023/01/10 11:53:42;;;;;;;12.50;8.80;;;;;;;10.77;58.22;96438.26;110571;1242;71181;-67
2023/01/10 11:56:21;;;;;;;17.40;13.10;;;;;;;10.80;59.35;96436.03;110611;1248;69046;-67
2023/01/10 11:58:51;;;;;;;16.10;13.00;;;;;;;10.91;58.87;96430.54;110607;1241;67523;-67
2023/01/10 12:02:06;;;;;;;18.40;13.90;;;;;;;11.02;59.06;96432.30;110624;1239;59731;-67
2023/01/10 12:04:41;;;;;;;16.10;12.40;;;;;;;11.17;58.69;96431.97;109612;1247;59806;-68
2023/01/10 12:07:11;;;;;;;15.50;11.50;;;;;;;11.25;58.09;96437.08;110519;1238;72189;-67
2023/01/10 12:09:43;;;;;;;12.80;10.00;;;;;;;11.26;57.40;96440.80;110606;1238;69132;-67